Terminal Aerodrome Forecast
Issued by NWS

Home | Current Version | Previous Version | Text Only | Print | Product List | Glossary On
Versions: 1 2 3 4 5 6 7 8 9 10 11 12 13 14 15 16 17 18 19
025
FTUS42 KFFC 171132
TAFPDK
TAF
KPDK 171132Z 1712/1812 06004KT P6SM SKC
     FM171400 07011G18KT P6SM SKC
     FM171800 07009KT P6SM SKC
     FM172200 06006KT P6SM SKC=

USA.gov is the U.S. government's official web portal to all federal, state and local government web resources and services.